Time;durP1;ratioP1;P1;durP2;ratioP2;P2;SDS_P1;SDS_P2;PMS_P1;PMS_P2;Temp;Humidity;BMP_temperature;BMP_pressure;BME280_temperature;BME280_humidity;BME280_pressure;Samples;Min_cycle;Max_cycle;Signal;HPM_P1;HPM_P2
2021/04/02 00:00:35;;;;;;;2.43;2.10;;;;;;;7.22;94.29;101700.44;4971623;28;20232;-69
2021/04/02 00:03:13;;;;;;;1.90;1.80;;;;;;;7.22;93.62;101692.34;4971462;28;20578;-69
2021/04/02 00:05:41;;;;;;;1.80;1.70;;;;;;;7.30;93.07;101693.66;4971330;28;20226;-69
2021/04/02 00:08:07;;;;;;;1.60;1.50;;;;;;;7.17;93.18;101697.56;4954426;28;20873;-69
2021/04/02 00:10:44;;;;;;;2.07;1.97;;;;;;;7.08;94.45;101699.75;4987605;28;20320;-69
2021/04/02 00:13:17;;;;;;;2.20;2.00;;;;;;;6.96;94.24;101698.03;4986184;28;20190;-69
2021/04/02 00:15:45;;;;;;;1.90;1.80;;;;;;;6.96;94.93;101696.13;4986729;28;20241;-69
2021/04/02 00:18:14;;;;;;;2.00;1.90;;;;;;;7.01;94.80;101700.84;4987216;28;20273;-69
2021/04/02 00:20:40;;;;;;;1.67;1.57;;;;;;;7.05;94.24;101708.31;4971391;28;20254;-69
2021/04/02 00:23:08;;;;;;;1.80;1.70;;;;;;;7.07;94.13;101694.56;4971171;28;20213;-68
2021/04/02 00:25:34;;;;;;;1.63;1.53;;;;;;;7.20;92.87;101689.00;4971459;28;20229;-69
2021/04/02 00:28:00;;;;;;;1.80;1.70;;;;;;;7.07;92.61;101695.41;4971996;28;20201;-70
2021/04/02 00:30:49;;;;;;;1.23;1.23;;;;;;;6.97;92.90;101689.66;4987435;28;20222;-69
2021/04/02 00:33:18;;;;;;;1.63;1.53;;;;;;;6.85;93.64;101700.59;4970718;28;20185;-69
2021/04/02 00:35:44;;;;;;;1.60;1.50;;;;;;;6.93;93.22;101698.47;4986846;28;20660;-68
2021/04/02 00:38:12;;;;;;;1.53;1.43;;;;;;;7.13;92.51;101688.28;4989024;28;20198;-70
2021/04/02 00:40:42;;;;;;;1.77;1.60;;;;;;;7.00;92.13;101688.41;4990330;28;20259;-70
2021/04/02 00:43:11;;;;;;;1.40;1.33;;;;;;;7.12;91.84;101675.81;4989804;28;20209;-69
2021/04/02 00:45:38;;;;;;;1.50;1.40;;;;;;;7.09;91.96;101678.97;4991520;28;20276;-69
2021/04/02 00:48:04;;;;;;;1.50;1.30;;;;;;;6.99;93.00;101682.16;5007069;28;20178;-69
2021/04/02 00:50:51;;;;;;;1.60;1.50;;;;;;;6.84;93.25;101683.59;5006136;28;20231;-69
2021/04/02 00:53:17;;;;;;;1.63;1.53;;;;;;;6.88;93.67;101679.38;4989909;28;20244;-72
2021/04/02 00:55:44;;;;;;;1.70;1.60;;;;;;;7.03;93.31;101675.31;4989950;28;20229;-68
2021/04/02 00:58:14;;;;;;;1.80;1.70;;;;;;;7.12;93.25;101665.81;5006770;28;20647;-68
2021/04/02 01:00:42;;;;;;;1.53;1.43;;;;;;;7.26;92.11;101671.91;4989621;28;20233;-69
2021/04/02 01:03:09;;;;;;;1.60;1.50;;;;;;;7.35;91.21;101669.50;5005909;28;20269;-69
2021/04/02 01:05:41;;;;;;;1.70;1.60;;;;;;;7.40;91.05;101668.84;4989736;28;20301;-69
2021/04/02 01:08:16;;;;;;;1.60;1.40;;;;;;;7.43;90.85;101668.34;4990336;28;20196;-70
2021/04/02 01:10:42;;;;;;;1.40;1.30;;;;;;;7.55;90.23;101667.38;4991098;28;20279;-69
2021/04/02 01:13:19;;;;;;;1.40;1.30;;;;;;;7.54;89.56;101660.31;4989140;28;20173;-69
2021/04/02 01:16:01;;;;;;;0.60;0.60;;;;;;;7.47;87.21;101662.28;5006019;28;20225;-69
2021/04/02 01:18:30;;;;;;;0.73;0.50;;;;;;;7.48;86.57;101669.31;4990312;28;20181;-69
2021/04/02 01:20:58;;;;;;;0.60;0.60;;;;;;;7.28;88.05;101668.75;4979087;28;20580;-68
2021/04/02 01:23:28;;;;;;;0.60;0.60;;;;;;;7.39;87.65;101676.09;4986468;28;20186;-69
2021/04/02 01:26:31;;;;;;;0.50;0.50;;;;;;;7.40;87.31;101677.75;5005475;28;20225;-68
2021/04/02 01:29:24;;;;;;;0.40;0.40;;;;;;;7.24;87.04;101664.03;4989924;28;20185;-68
2021/04/02 01:31:51;;;;;;;0.60;0.60;;;;;;;7.12;88.26;101670.41;4988855;28;20371;-68
2021/04/02 01:34:22;;;;;;;0.60;0.60;;;;;;;7.12;88.88;101675.81;5006078;28;20199;-68
2021/04/02 01:36:51;;;;;;;0.60;0.60;;;;;;;7.06;88.95;101676.72;4989413;28;20233;-69
2021/04/02 01:39:21;;;;;;;0.70;0.70;;;;;;;7.07;88.70;101681.91;4991278;28;20186;-70
2021/04/02 01:41:53;;;;;;;0.80;0.60;;;;;;;7.08;89.11;101680.00;4988803;28;20237;-69
2021/04/02 01:44:19;;;;;;;0.50;0.50;;;;;;;7.05;89.71;101677.75;4989426;28;20216;-69
2021/04/02 01:46:45;;;;;;;0.63;0.63;;;;;;;6.90;90.38;101683.53;4973332;28;20695;-69
2021/04/02 01:49:11;;;;;;;0.60;0.60;;;;;;;6.76;90.85;101689.28;4989701;28;20193;-69
2021/04/02 01:51:38;;;;;;;0.70;0.70;;;;;;;6.69;91.93;101685.00;5005051;28;20221;-69
2021/04/02 01:54:05;;;;;;;0.67;0.67;;;;;;;6.62;92.01;101689.63;5005712;28;20201;-69
2021/04/02 01:56:31;;;;;;;0.70;0.70;;;;;;;6.53;92.13;101694.47;4989125;28;20596;-68
2021/04/02 01:58:57;;;;;;;0.70;0.70;;;;;;;6.51;92.82;101689.53;4989380;28;20221;-69
2021/04/02 02:01:30;;;;;;;1.03;0.80;;;;;;;6.38;93.34;101686.94;4988718;28;20233;-69
2021/04/02 02:04:04;;;;;;;1.03;0.80;;;;;;;6.34;93.85;101683.03;4988608;28;20216;-67
2021/04/02 02:06:33;;;;;;;0.80;0.80;;;;;;;6.28;94.19;101689.28;5004299;28;20221;-69
2021/04/02 02:09:14;;;;;;;0.80;0.70;;;;;;;6.02;95.57;101686.78;4990008;28;20631;-69
2021/04/02 02:11:43;;;;;;;0.63;0.63;;;;;;;6.06;96.01;101682.59;4988886;28;20304;-69
2021/04/02 02:14:17;;;;;;;0.70;0.70;;;;;;;6.21;95.64;101683.13;4973331;28;20198;-69
2021/04/02 02:16:57;;;;;;;0.80;0.80;;;;;;;6.24;95.13;101675.41;4988924;28;20240;-69
2021/04/02 02:19:26;;;;;;;0.97;0.90;;;;;;;6.28;95.47;101681.19;4989290;28;20186;-68
2021/04/02 02:21:55;;;;;;;0.77;0.60;;;;;;;6.39;94.71;101677.78;4987736;28;20320;-69
2021/04/02 02:24:26;;;;;;;0.90;0.80;;;;;;;6.43;94.28;101685.22;4989444;28;20672;-69
2021/04/02 02:26:52;;;;;;;0.60;0.50;;;;;;;6.44;94.14;101673.38;4989055;28;20248;-68
2021/04/02 02:29:19;;;;;;;0.70;0.70;;;;;;;6.52;93.96;101671.25;4974065;28;20182;-67
2021/04/02 02:31:48;;;;;;;0.70;0.70;;;;;;;6.62;93.43;101668.84;4989062;28;20222;-68
2021/04/02 02:34:14;;;;;;;0.60;0.60;;;;;;;6.59;93.28;101663.91;4990265;28;20296;-69
2021/04/02 02:36:50;;;;;;;0.70;0.70;;;;;;;6.49;93.37;101657.34;4989333;28;20228;-70
2021/04/02 02:39:17;;;;;;;0.97;0.77;;;;;;;6.55;93.65;101665.38;4990629;28;20196;-68
2021/04/02 02:41:47;;;;;;;0.67;0.67;;;;;;;6.54;93.59;101654.84;4985306;28;20665;-69
2021/04/02 02:44:14;;;;;;;8.17;2.00;;;;;;;6.51;93.22;101652.56;4975076;28;20217;-68
2021/04/02 02:46:41;;;;;;;0.73;0.73;;;;;;;6.52;94.04;101656.94;4975149;28;20603;-68
2021/04/02 02:49:14;;;;;;;2.30;0.60;;;;;;;6.54;94.00;101647.56;4976598;28;20257;-68
2021/04/02 02:51:44;;;;;;;0.70;0.70;;;;;;;6.49;93.69;101661.94;4974049;28;20230;-69
2021/04/02 02:54:18;;;;;;;0.60;0.60;;;;;;;6.39;93.98;101657.06;4958621;28;20213;-69
2021/04/02 02:56:47;;;;;;;0.73;0.70;;;;;;;6.28;94.78;101662.31;4973905;28;20218;-68
2021/04/02 02:59:14;;;;;;;0.60;0.60;;;;;;;6.44;94.83;101665.28;4973883;28;20278;-68
2021/04/02 03:01:41;;;;;;;0.80;0.80;;;;;;;6.19;94.45;101674.41;4972390;28;20730;-68
2021/04/02 03:04:07;;;;;;;0.80;0.80;;;;;;;6.25;95.37;101677.06;4957923;28;20206;-69
2021/04/02 03:06:37;;;;;;;0.70;0.70;;;;;;;6.13;95.54;101661.81;4957164;28;20225;-68
2021/04/02 03:09:05;;;;;;;0.93;0.93;;;;;;;6.13;96.37;101669.91;4990165;28;20182;-69
2021/04/02 03:11:33;;;;;;;1.70;0.80;;;;;;;6.03;96.67;101672.25;4957359;28;20222;-71
2021/04/02 03:13:59;;;;;;;0.80;0.80;;;;;;;5.99;96.97;101668.34;4973085;28;20206;-69
2021/04/02 03:16:28;;;;;;;0.90;0.90;;;;;;;6.35;96.61;101660.38;4973482;28;20226;-70
2021/04/02 03:18:57;;;;;;;0.77;0.77;;;;;;;6.17;96.91;101657.63;4958295;28;20186;-69
2021/04/02 03:21:23;;;;;;;0.80;0.77;;;;;;;5.94;98.31;101656.56;4973480;28;20372;-68
2021/04/02 03:23:54;;;;;;;0.73;0.70;;;;;;;5.89;100.00;101651.81;4972910;28;20217;-69
2021/04/02 03:26:21;;;;;;;0.67;0.67;;;;;;;5.64;100.00;101643.88;4973284;28;20624;-68
2021/04/02 03:28:50;;;;;;;0.67;0.67;;;;;;;5.43;100.00;101636.13;4957714;28;20194;-69
2021/04/02 03:31:17;;;;;;;1.00;0.70;;;;;;;5.49;100.00;101635.25;4980025;28;20241;-69
2021/04/02 03:33:49;;;;;;;1.23;0.77;;;;;;;5.28;100.00;101640.97;4991949;28;20906;-69
2021/04/02 03:36:20;;;;;;;0.70;0.70;;;;;;;4.98;100.00;101645.22;4976650;28;20229;-70
2021/04/02 03:38:48;;;;;;;0.70;0.70;;;;;;;4.99;100.00;101643.34;5009224;28;20209;-69
2021/04/02 03:41:28;;;;;;;0.80;0.80;;;;;;;5.17;100.00;101644.31;4977218;28;20248;-69
2021/04/02 03:43:57;;;;;;;0.73;0.73;;;;;;;5.07;100.00;101657.41;4992367;28;20244;-69
2021/04/02 03:46:23;;;;;;;1.53;0.90;;;;;;;4.97;100.00;101651.63;4991985;28;20229;-68
2021/04/02 03:48:51;;;;;;;0.80;0.80;;;;;;;4.68;100.00;101667.44;4976983;28;20189;-68
2021/04/02 03:51:21;;;;;;;1.10;1.00;;;;;;;4.53;100.00;101668.69;4990699;28;20222;-68
2021/04/02 03:53:51;;;;;;;1.33;0.97;;;;;;;4.57;100.00;101670.75;4991683;28;20252;-68
2021/04/02 03:56:23;;;;;;;1.37;0.97;;;;;;;4.42;100.00;101663.94;4991959;28;20695;-68
2021/04/02 03:58:50;;;;;;;1.47;1.10;;;;;;;4.10;100.00;101665.81;4992456;28;20190;-69
2021/04/02 04:01:22;;;;;;;1.07;1.03;;;;;;;4.00;100.00;101670.78;4991931;28;20259;-68
2021/04/02 04:03:48;;;;;;;2.67;1.90;;;;;;;3.89;100.00;101657.94;4991096;28;20206;-69
2021/04/02 04:06:18;;;;;;;2.50;2.30;;;;;;;3.86;100.00;101655.66;4975889;28;20226;-68
2021/04/02 04:08:48;;;;;;;1.60;1.50;;;;;;;3.88;100.00;101650.91;4992621;28;20181;-69
2021/04/02 04:11:17;;;;;;;1.37;1.27;;;;;;;3.91;100.00;101656.69;4992006;28;20221;-69
2021/04/02 04:13:44;;;;;;;2.17;1.40;;;;;;;3.94;100.00;101660.84;4991209;28;20707;-69
2021/04/02 04:16:09;;;;;;;1.47;1.00;;;;;;;4.03;100.00;101659.59;4991662;28;20229;-69
2021/04/02 04:18:39;;;;;;;1.43;1.17;;;;;;;4.20;100.00;101649.06;4993532;28;20268;-68
2021/04/02 04:21:06;;;;;;;0.87;0.87;;;;;;;4.16;100.00;101664.97;4991519;28;20240;-68
2021/04/02 04:23:51;;;;;;;1.37;1.20;;;;;;;4.03;100.00;101659.59;4991813;28;20213;-68
2021/04/02 04:26:17;;;;;;;1.83;1.50;;;;;;;4.19;100.00;101660.03;4993176;28;20703;-69
2021/04/02 04:28:44;;;;;;;1.20;1.10;;;;;;;4.04;100.00;101658.56;4992682;28;20193;-68
2021/04/02 04:31:12;;;;;;;2.20;1.20;;;;;;;4.01;100.00;101662.50;4992106;28;20232;-68
2021/04/02 04:33:41;;;;;;;1.50;1.40;;;;;;;3.93;100.00;101659.19;4991968;28;20205;-68
2021/04/02 04:36:07;;;;;;;1.17;1.10;;;;;;;3.88;100.00;101661.66;4992259;28;20328;-69
2021/04/02 04:38:32;;;;;;;3.47;1.37;;;;;;;3.93;100.00;101672.63;4989667;28;20173;-69
2021/04/02 04:40:58;;;;;;;1.80;1.70;;;;;;;3.93;100.00;101668.06;4995675;28;20233;-69
2021/04/02 04:43:23;;;;;;;2.30;2.10;;;;;;;3.87;100.00;101676.94;4997608;28;20178;-69
2021/04/02 04:45:49;;;;;;;2.90;2.50;;;;;;;4.07;100.00;101671.63;5008714;28;20217;-68
2021/04/02 04:48:14;;;;;;;1.60;1.40;;;;;;;3.94;100.00;101674.28;4991938;28;20868;-69
2021/04/02 04:50:40;;;;;;;1.63;1.53;;;;;;;3.94;100.00;101672.41;4991545;28;20694;-68
2021/04/02 04:53:18;;;;;;;2.23;1.70;;;;;;;3.87;100.00;101681.50;4978471;28;20191;-70
2021/04/02 04:55:46;;;;;;;1.90;1.50;;;;;;;4.04;100.00;101674.69;4972752;28;20316;-69
2021/04/02 04:58:13;;;;;;;1.43;1.30;;;;;;;3.99;100.00;101675.34;4956191;28;20182;-69
2021/04/02 05:00:43;;;;;;;1.20;1.10;;;;;;;3.99;100.00;101669.97;4988075;28;20644;-69
2021/04/02 05:03:09;;;;;;;1.53;1.30;;;;;;;4.07;100.00;101677.00;4971753;28;20250;-69
2021/04/02 05:05:39;;;;;;;1.23;1.13;;;;;;;4.07;100.00;101674.31;4972465;28;20221;-71
2021/04/02 05:08:05;;;;;;;1.00;1.00;;;;;;;4.12;100.00;101671.81;4973395;28;20206;-68
2021/04/02 05:10:31;;;;;;;1.50;1.40;;;;;;;4.29;100.00;101682.78;4988286;28;20360;-68
2021/04/02 05:12:57;;;;;;;4.67;4.23;;;;;;;4.31;100.00;101675.34;4970640;28;20202;-69
2021/04/02 05:15:23;;;;;;;1.30;1.20;;;;;;;4.28;100.00;101670.34;4970371;28;20269;-69
2021/04/02 05:17:49;;;;;;;1.30;1.20;;;;;;;4.38;100.00;101665.41;4970869;28;20202;-68
2021/04/02 05:20:15;;;;;;;2.00;1.60;;;;;;;4.26;100.00;101661.66;4971002;28;20281;-69
2021/04/02 05:22:40;;;;;;;1.63;1.53;;;;;;;4.38;100.00;101662.72;4952850;29;20191;-68
2021/04/02 05:25:07;;;;;;;2.10;1.80;;;;;;;4.57;100.00;101659.19;4969483;28;20207;-69
2021/04/02 05:27:32;;;;;;;1.83;1.73;;;;;;;4.61;100.00;101666.63;4969303;28;20629;-69
2021/04/02 05:29:58;;;;;;;2.40;2.07;;;;;;;4.87;100.00;101650.44;4969692;28;20191;-69
2021/04/02 05:32:26;;;;;;;2.23;2.03;;;;;;;4.85;100.00;101651.66;4968440;28;20297;-68
2021/04/02 05:34:51;;;;;;;3.53;2.90;;;;;;;5.02;100.00;101648.31;4969118;28;20207;-68
2021/04/02 05:37:19;;;;;;;4.77;3.23;;;;;;;4.94;100.00;101640.47;4952381;28;20230;-69
2021/04/02 05:39:45;;;;;;;3.30;3.00;;;;;;;4.78;100.00;101650.84;4968878;28;20195;-69
2021/04/02 05:42:16;;;;;;;3.43;2.70;;;;;;;4.89;100.00;101639.44;4952643;28;20266;-69
2021/04/02 05:44:42;;;;;;;4.30;3.10;;;;;;;4.96;100.00;101638.38;4954102;29;20242;-69
2021/04/02 05:47:08;;;;;;;3.53;3.23;;;;;;;4.99;100.00;101630.72;4969022;28;20218;-68
2021/04/02 05:49:38;;;;;;;4.03;3.57;;;;;;;5.08;100.00;101632.13;4969070;28;20187;-69
2021/04/02 05:52:04;;;;;;;4.93;4.00;;;;;;;5.21;100.00;101637.47;4953019;28;20223;-69
2021/04/02 05:54:31;;;;;;;5.17;4.53;;;;;;;5.09;100.00;101633.78;4969036;28;20310;-68
2021/04/02 05:56:56;;;;;;;6.40;5.40;;;;;;;4.94;100.00;101650.41;4952418;28;20231;-69
2021/04/02 05:59:22;;;;;;;6.93;5.67;;;;;;;4.93;100.00;101649.59;4969483;28;20238;-69
2021/04/02 06:01:48;;;;;;;8.50;7.07;;;;;;;5.19;100.00;101658.38;4951267;28;20712;-69
2021/04/02 06:04:14;;;;;;;9.70;8.70;;;;;;;4.98;100.00;101660.53;4968289;28;20297;-69
2021/04/02 06:06:39;;;;;;;11.30;8.90;;;;;;;5.02;100.00;101659.91;4968078;28;20771;-68
2021/04/02 06:09:05;;;;;;;12.83;9.23;;;;;;;4.99;100.00;101654.94;4968146;28;20211;-69
2021/04/02 06:11:33;;;;;;;14.00;9.80;;;;;;;5.01;100.00;101649.34;4967806;28;20674;-71
2021/04/02 06:14:04;;;;;;;13.60;10.80;;;;;;;5.27;100.00;101663.53;4966735;28;20211;-69
2021/04/02 06:16:30;;;;;;;14.57;10.73;;;;;;;5.23;100.00;101653.41;4967394;28;20705;-68
2021/04/02 06:18:56;;;;;;;12.10;9.97;;;;;;;5.25;100.00;101654.84;4968035;28;20194;-68
2021/04/02 06:21:27;;;;;;;13.50;9.80;;;;;;;5.29;100.00;101666.00;4966533;28;20689;-70
2021/04/02 06:23:53;;;;;;;13.13;9.63;;;;;;;5.28;100.00;101665.19;4950254;29;20210;-69
2021/04/02 06:26:23;;;;;;;12.50;9.23;;;;;;;5.41;100.00;101665.13;4966106;28;20226;-70
2021/04/02 06:28:48;;;;;;;10.73;8.77;;;;;;;5.39;100.00;101668.03;4952053;28;20210;-70
2021/04/02 06:31:15;;;;;;;10.03;7.57;;;;;;;5.31;100.00;101659.41;4950041;28;20223;-69
2021/04/02 06:33:58;;;;;;;10.20;7.63;;;;;;;5.39;100.00;101667.22;4966035;28;20227;-69
2021/04/02 06:36:27;;;;;;;10.27;7.67;;;;;;;5.17;100.00;101665.84;4966543;28;20223;-69
2021/04/02 06:39:04;;;;;;;9.27;6.90;;;;;;;5.44;100.00;101659.34;4966913;28;20186;-69
2021/04/02 06:41:31;;;;;;;8.10;6.27;;;;;;;5.77;100.00;101667.03;4950110;28;20238;-70
2021/04/02 06:44:03;;;;;;;8.70;6.70;;;;;;;5.94;100.00;101659.28;4965687;28;20215;-69
2021/04/02 06:46:36;;;;;;;7.27;6.17;;;;;;;5.65;100.00;101669.78;4951202;28;20234;-69
2021/04/02 06:49:12;;;;;;;8.10;6.00;;;;;;;5.60;100.00;101669.59;4981657;28;20250;-70
2021/04/02 06:51:39;;;;;;;7.57;5.93;;;;;;;5.63;100.00;101674.56;4934244;28;20246;-70
2021/04/02 06:54:06;;;;;;;8.40;5.97;;;;;;;5.36;100.00;101678.41;4950596;29;20207;-70
2021/04/02 06:56:35;;;;;;;7.90;6.23;;;;;;;5.51;100.00;101687.03;4967562;28;20226;-71
2021/04/02 06:59:01;;;;;;;10.20;8.83;;;;;;;5.45;100.00;101682.53;4969063;28;20222;-69
2021/04/02 07:01:31;;;;;;;21.93;15.23;;;;;;;5.70;100.00;101686.13;4985149;28;20293;-69
2021/04/02 07:03:57;;;;;;;9.77;7.43;;;;;;;5.83;100.00;101678.84;4984867;28;20221;-68
2021/04/02 07:06:30;;;;;;;7.00;6.10;;;;;;;5.75;100.00;101677.22;4983369;28;20237;-69
2021/04/02 07:08:56;;;;;;;8.23;6.57;;;;;;;5.82;100.00;101685.25;4965453;28;20198;-69
2021/04/02 07:11:21;;;;;;;10.67;6.37;;;;;;;5.81;100.00;101679.03;4966020;28;20226;-70
2021/04/02 07:13:49;;;;;;;7.97;5.77;;;;;;;5.90;100.00;101668.84;4975602;28;20273;-70
2021/04/02 07:16:16;;;;;;;8.37;5.70;;;;;;;6.31;100.00;101662.69;4984518;28;20225;-69
2021/04/02 07:18:42;;;;;;;11.87;7.97;;;;;;;6.16;100.00;101672.97;4998588;28;20231;-69
2021/04/02 07:21:08;;;;;;;7.50;6.00;;;;;;;6.29;100.00;101672.06;4979907;28;20229;-68
2021/04/02 07:23:34;;;;;;;7.63;5.90;;;;;;;6.49;100.00;101683.53;4999273;28;20249;-69
2021/04/02 07:26:01;;;;;;;8.67;5.60;;;;;;;6.41;100.00;101675.69;4990029;28;20230;-67
2021/04/02 07:28:30;;;;;;;7.57;5.73;;;;;;;6.52;100.00;101668.53;4941025;28;20361;-68
2021/04/02 07:30:58;;;;;;;9.83;5.53;;;;;;;6.38;100.00;101665.34;4983327;28;20217;-69
2021/04/02 07:33:24;;;;;;;7.73;5.30;;;;;;;5.94;100.00;101675.44;4991516;28;20189;-68
2021/04/02 07:35:57;;;;;;;9.70;5.07;;;;;;;5.93;100.00;101671.09;5007842;28;20237;-69
2021/04/02 07:38:36;;;;;;;6.73;4.50;;;;;;;6.16;100.00;101674.88;4989371;28;20195;-69
2021/04/02 07:41:10;;;;;;;11.57;5.97;;;;;;;5.90;100.00;101677.75;4952712;28;20233;-68
2021/04/02 07:43:49;;;;;;;6.60;4.20;;;;;;;5.81;100.00;101684.44;4987825;28;20590;-68
2021/04/02 07:46:16;;;;;;;9.70;4.33;;;;;;;5.65;100.00;101683.25;4973303;28;20241;-69
2021/04/02 07:48:48;;;;;;;8.87;4.40;;;;;;;5.62;100.00;101689.06;4985450;28;20187;-69
2021/04/02 07:51:16;;;;;;;7.23;4.77;;;;;;;5.81;100.00;101689.00;4968514;28;20221;-69
2021/04/02 07:53:43;;;;;;;6.23;3.90;;;;;;;5.74;100.00;101688.22;4952448;28;20206;-70
2021/04/02 07:56:14;;;;;;;9.80;4.00;;;;;;;5.64;100.00;101684.28;4936957;28;20226;-68
2021/04/02 07:58:50;;;;;;;5.90;3.30;;;;;;;5.79;100.00;101691.91;4978993;28;20194;-68
2021/04/02 08:01:17;;;;;;;8.53;3.50;;;;;;;5.68;100.00;101690.88;4956490;28;20238;-69
2021/04/02 08:03:44;;;;;;;8.63;3.63;;;;;;;5.72;100.00;101697.53;4990088;28;20296;-68
2021/04/02 08:06:27;;;;;;;10.17;4.13;;;;;;;5.50;100.00;101696.19;4987889;28;20249;-67
2021/04/02 08:08:53;;;;;;;6.17;3.37;;;;;;;5.65;100.00;101688.66;4988453;28;20190;-68
2021/04/02 08:11:41;;;;;;;6.50;3.83;;;;;;;5.61;100.00;101687.44;4987717;28;20214;-69
2021/04/02 08:14:11;;;;;;;8.60;3.37;;;;;;;5.74;100.00;101682.00;4984296;28;20223;-68
2021/04/02 08:16:53;;;;;;;8.13;2.90;;;;;;;6.04;100.00;101690.06;4984598;28;20233;-67
2021/04/02 08:19:26;;;;;;;8.53;2.90;;;;;;;5.87;100.00;101685.44;4970802;28;20183;-69
2021/04/02 08:21:54;;;;;;;11.63;5.23;;;;;;;6.21;100.00;101675.03;4986854;28;20222;-69
2021/04/02 08:24:22;;;;;;;5.73;2.57;;;;;;;6.61;97.12;101667.22;4956113;28;20268;-73
2021/04/02 08:26:50;;;;;;;6.97;2.10;;;;;;;6.49;95.56;101667.34;4966771;28;20247;-70
2021/04/02 08:29:17;;;;;;;8.97;2.20;;;;;;;6.47;93.96;101664.03;4968252;28;20269;-73
2021/04/02 08:31:49;;;;;;;6.87;1.90;;;;;;;6.39;95.10;101661.59;4972749;28;20699;-69
2021/04/02 08:34:17;;;;;;;6.57;1.90;;;;;;;6.73;94.55;101657.31;4991205;28;20676;-69
2021/04/02 08:36:49;;;;;;;30.50;17.10;;;;;;;6.99;91.12;101648.94;4945422;28;20214;-68
2021/04/02 08:39:16;;;;;;;5.77;1.70;;;;;;;6.94;90.04;101652.34;4999651;28;20194;-69
2021/04/02 08:41:41;;;;;;;6.37;1.50;;;;;;;6.88;89.73;101640.78;4971661;28;20780;-70
2021/04/02 08:44:07;;;;;;;5.10;1.50;;;;;;;7.12;88.28;101643.38;4987276;28;20214;-70
2021/04/02 08:46:40;;;;;;;5.83;1.77;;;;;;;7.17;86.54;101644.38;4978952;28;20225;-69
2021/04/02 08:49:06;;;;;;;5.90;1.57;;;;;;;6.88;88.70;101638.88;4962957;28;20186;-69
2021/04/02 08:51:32;;;;;;;3.23;1.30;;;;;;;7.28;86.02;101629.28;4970424;28;20696;-68
2021/04/02 08:53:57;;;;;;;6.23;1.40;;;;;;;7.41;86.00;101621.81;4985054;28;20238;-71
2021/04/02 08:56:30;;;;;;;6.33;1.90;;;;;;;7.60;86.78;101616.16;4972755;28;20722;-69
2021/04/02 08:58:57;;;;;;;7.20;1.73;;;;;;;7.54;84.32;101613.53;4981581;28;20191;-70
2021/04/02 09:01:25;;;;;;;6.77;1.80;;;;;;;7.97;83.12;101612.28;4968944;28;20313;-67
2021/04/02 09:03:51;;;;;;;11.40;5.00;;;;;;;8.26;82.16;101613.06;4967567;28;20215;-70
2021/04/02 09:06:17;;;;;;;6.17;1.67;;;;;;;8.91;76.41;101599.94;4967692;28;20261;-69
2021/04/02 09:08:43;;;;;;;6.10;1.97;;;;;;;8.50;77.18;101599.28;4988507;28;20190;-72
2021/04/02 09:11:12;;;;;;;5.60;1.77;;;;;;;7.82;81.99;101610.00;4975048;28;20226;-69
2021/04/02 09:13:41;;;;;;;5.90;1.43;;;;;;;8.03;81.07;101602.16;4977947;28;20638;-70
2021/04/02 09:16:12;;;;;;;6.03;1.30;;;;;;;8.05;78.84;101597.31;4988731;28;20251;-69
2021/04/02 09:18:58;;;;;;;6.03;1.57;;;;;;;8.36;78.99;101597.03;4985075;28;20191;-68
2021/04/02 09:21:24;;;;;;;3.63;1.40;;;;;;;8.28;75.61;101605.53;4952425;28;20233;-68
2021/04/02 09:23:50;;;;;;;7.87;2.20;;;;;;;8.22;77.43;101594.78;4982967;28;20210;-68
2021/04/02 09:26:16;;;;;;;6.73;1.60;;;;;;;7.95;79.84;101592.72;4966573;28;20241;-68
2021/04/02 09:28:45;;;;;;;10.77;1.63;;;;;;;8.13;79.42;101583.50;4969719;28;20194;-68
2021/04/02 09:31:27;;;;;;;7.97;1.97;;;;;;;8.18;78.40;101583.59;4971283;28;20222;-68
2021/04/02 09:34:01;;;;;;;7.90;1.77;;;;;;;8.59;77.21;101570.81;4979665;28;20268;-68
2021/04/02 09:36:28;;;;;;;6.63;1.50;;;;;;;9.07;75.32;101572.13;4968237;28;20228;-68
2021/04/02 09:39:23;;;;;;;5.83;1.67;;;;;;;8.79;74.65;101586.66;4964085;28;20183;-68
2021/04/02 09:41:54;;;;;;;3.60;1.60;;;;;;;8.87;72.56;101582.53;4977696;28;20234;-67
2021/04/02 09:44:22;;;;;;;3.77;1.40;;;;;;;9.03;73.21;101589.91;4969173;28;20624;-68
2021/04/02 09:46:50;;;;;;;4.67;1.30;;;;;;;9.17;71.26;101585.03;4970069;28;20329;-67
2021/04/02 09:49:21;;;;;;;5.23;1.50;;;;;;;9.13;68.86;101579.28;4971174;28;20684;-68
2021/04/02 09:51:50;;;;;;;5.97;1.63;;;;;;;8.65;70.63;101574.44;4976725;28;20234;-68
2021/04/02 09:54:16;;;;;;;6.47;1.37;;;;;;;8.75;72.33;101574.66;4979853;28;20218;-68
2021/04/02 09:56:42;;;;;;;5.90;1.33;;;;;;;8.85;71.85;101576.53;4981208;28;20226;-69
2021/04/02 09:59:09;;;;;;;5.47;1.40;;;;;;;8.79;71.43;101592.06;4979875;28;20779;-68
2021/04/02 10:01:36;;;;;;;6.30;1.73;;;;;;;9.11;70.89;101592.25;4978317;28;20231;-68
2021/04/02 10:04:01;;;;;;;7.57;2.03;;;;;;;9.10;69.47;101601.47;4975112;28;20211;-69
2021/04/02 10:06:29;;;;;;;8.63;1.60;;;;;;;9.28;69.92;101601.25;4981812;28;20227;-69
2021/04/02 10:08:56;;;;;;;4.90;1.87;;;;;;;9.31;70.17;101603.50;4979047;28;20269;-68
2021/04/02 10:11:22;;;;;;;7.53;1.70;;;;;;;9.25;66.51;101588.22;4964474;28;20661;-68
2021/04/02 10:13:48;;;;;;;6.90;1.70;;;;;;;8.84;69.15;101603.84;4966451;28;20238;-69
2021/04/02 10:16:14;;;;;;;4.67;1.70;;;;;;;8.83;68.47;101584.06;4965392;28;20241;-69
2021/04/02 10:18:40;;;;;;;6.53;1.87;;;;;;;9.18;67.68;101586.72;4970063;28;20175;-68
2021/04/02 10:21:06;;;;;;;8.27;1.80;;;;;;;8.85;67.71;101581.94;4976695;28;20726;-68
2021/04/02 10:23:32;;;;;;;7.03;1.53;;;;;;;9.06;67.60;101584.00;4983917;28;20280;-68
2021/04/02 10:26:00;;;;;;;7.93;2.00;;;;;;;9.11;68.62;101588.72;4972883;28;20225;-67
2021/04/02 10:28:26;;;;;;;6.77;2.10;;;;;;;8.98;67.33;101580.84;4963618;28;20277;-68
2021/04/02 10:30:52;;;;;;;8.63;1.70;;;;;;;8.84;70.37;101585.72;4964850;28;20306;-67
2021/04/02 10:33:18;;;;;;;8.77;2.30;;;;;;;9.25;67.93;101578.19;4967486;28;20251;-67
2021/04/02 10:35:45;;;;;;;9.80;2.13;;;;;;;9.56;67.08;101568.72;4969035;28;20214;-67
2021/04/02 10:38:13;;;;;;;6.93;1.80;;;;;;;9.08;67.53;101587.28;4988225;28;20644;-67
2021/04/02 10:40:39;;;;;;;8.10;2.20;;;;;;;9.36;66.28;101579.22;4971365;28;20296;-69
2021/04/02 10:43:05;;;;;;;9.20;2.10;;;;;;;9.09;68.53;101571.88;4976447;28;20665;-68
2021/04/02 10:45:32;;;;;;;5.13;1.70;;;;;;;9.58;66.34;101579.09;4975855;28;20228;-69
2021/04/02 10:48:00;;;;;;;6.43;1.70;;;;;;;9.14;66.39;101566.53;4979469;28;20214;-68
2021/04/02 10:50:28;;;;;;;7.97;2.53;;;;;;;9.02;68.49;101574.72;4949030;28;20198;-68
2021/04/02 10:52:54;;;;;;;8.07;2.33;;;;;;;8.66;69.78;101582.34;4971346;28;20546;-67
2021/04/02 10:55:23;;;;;;;8.57;2.10;;;;;;;8.46;70.88;101575.59;4965705;28;20391;-67
2021/04/02 10:57:49;;;;;;;10.93;2.23;;;;;;;8.87;70.98;101579.81;4969796;28;20269;-67
2021/04/02 11:00:18;;;;;;;7.73;2.27;;;;;;;8.93;70.46;101586.97;4980447;28;20197;-66
2021/04/02 11:02:46;;;;;;;8.00;1.90;;;;;;;8.82;71.48;101587.81;4972442;28;20911;-67
2021/04/02 11:05:12;;;;;;;7.83;2.00;;;;;;;8.81;70.75;101588.09;4964642;28;20213;-69
2021/04/02 11:07:38;;;;;;;9.87;2.87;;;;;;;8.63;72.72;101590.94;4967221;28;20264;-68
2021/04/02 11:10:05;;;;;;;6.43;1.90;;;;;;;8.68;71.66;101588.34;4957752;28;20194;-68
2021/04/02 11:12:31;;;;;;;5.97;1.80;;;;;;;8.85;71.76;101576.53;4962294;28;20238;-69
2021/04/02 11:15:00;;;;;;;9.83;2.00;;;;;;;8.16;76.02;101580.31;4972591;28;20585;-68
2021/04/02 11:17:25;;;;;;;5.80;1.90;;;;;;;8.49;75.16;101575.16;4963927;28;20231;-69
2021/04/02 11:19:51;;;;;;;12.23;2.33;;;;;;;8.55;74.40;101557.94;4973806;28;20186;-68
2021/04/02 11:22:17;;;;;;;8.07;2.53;;;;;;;8.98;73.11;101570.84;4987623;28;20716;-69
2021/04/02 11:24:43;;;;;;;10.77;1.93;;;;;;;8.73;73.88;101571.38;4973135;28;20230;-72
2021/04/02 11:27:09;;;;;;;8.33;2.27;;;;;;;8.75;73.69;101569.25;4972722;28;20218;-69
2021/04/02 11:29:38;;;;;;;8.47;2.13;;;;;;;8.42;75.67;101569.03;4989663;28;20185;-68
2021/04/02 11:32:08;;;;;;;8.47;2.47;;;;;;;8.62;74.48;101561.38;4987414;28;20604;-69
2021/04/02 11:34:34;;;;;;;12.07;2.60;;;;;;;8.65;74.87;101558.19;4980158;28;20210;-69
2021/04/02 11:37:00;;;;;;;8.80;2.00;;;;;;;8.66;73.02;101547.13;5002338;28;20216;-71